sensor_id;sensor_type;location;lat;lon;timestamp;P1;durP1;ratioP1;P2;durP2;ratioP2
72603;SDS011;60645;56.968;24.196;2023-04-01T00:01:26;18.40;;;10.52;;
72603;SDS011;60645;56.968;24.196;2023-04-01T00:03:53;20.38;;;10.80;;
72603;SDS011;60645;56.968;24.196;2023-04-01T00:06:22;20.20;;;11.00;;
72603;SDS011;60645;56.968;24.196;2023-04-01T00:08:49;17.27;;;9.45;;
72603;SDS011;60645;56.968;24.196;2023-04-01T00:11:16;15.07;;;8.70;;
72603;SDS011;60645;56.968;24.196;2023-04-01T00:13:45;16.03;;;8.93;;
72603;SDS011;60645;56.968;24.196;2023-04-01T00:16:13;16.70;;;9.23;;
72603;SDS011;60645;56.968;24.196;2023-04-01T00:18:44;16.40;;;9.27;;
72603;SDS011;60645;56.968;24.196;2023-04-01T00:21:13;15.82;;;8.48;;
72603;SDS011;60645;56.968;24.196;2023-04-01T00:23:40;16.98;;;9.30;;
72603;SDS011;60645;56.968;24.196;2023-04-01T00:26:07;18.35;;;9.55;;
72603;SDS011;60645;56.968;24.196;2023-04-01T00:28:34;17.90;;;9.73;;
72603;SDS011;60645;56.968;24.196;2023-04-01T00:31:05;18.20;;;10.00;;
72603;SDS011;60645;56.968;24.196;2023-04-01T00:33:33;14.82;;;8.68;;
72603;SDS011;60645;56.968;24.196;2023-04-01T00:36:07;16.20;;;9.60;;
72603;SDS011;60645;56.968;24.196;2023-04-01T00:38:44;15.45;;;8.48;;
72603;SDS011;60645;56.968;24.196;2023-04-01T00:41:12;18.02;;;9.57;;
72603;SDS011;60645;56.968;24.196;2023-04-01T00:43:42;16.88;;;9.55;;
72603;SDS011;60645;56.968;24.196;2023-04-01T00:46:11;18.27;;;9.93;;
72603;SDS011;60645;56.968;24.196;2023-04-01T00:48:39;20.65;;;10.27;;
72603;SDS011;60645;56.968;24.196;2023-04-01T00:51:11;19.55;;;10.07;;
72603;SDS011;60645;56.968;24.196;2023-04-01T00:53:45;18.95;;;10.13;;
72603;SDS011;60645;56.968;24.196;2023-04-01T00:56:24;18.50;;;9.38;;
72603;SDS011;60645;56.968;24.196;2023-04-01T00:58:58;17.20;;;8.70;;
72603;SDS011;60645;56.968;24.196;2023-04-01T01:01:28;18.17;;;9.75;;
72603;SDS011;60645;56.968;24.196;2023-04-01T01:03:56;16.67;;;8.60;;
72603;SDS011;60645;56.968;24.196;2023-04-01T01:06:26;17.70;;;9.25;;
72603;SDS011;60645;56.968;24.196;2023-04-01T01:27:40;17.65;;;8.38;;
72603;SDS011;60645;56.968;24.196;2023-04-01T01:30:25;17.00;;;8.43;;
72603;SDS011;60645;56.968;24.196;2023-04-01T01:33:22;18.45;;;8.85;;
72603;SDS011;60645;56.968;24.196;2023-04-01T01:35:56;17.90;;;9.05;;
72603;SDS011;60645;56.968;24.196;2023-04-01T01:38:27;17.35;;;8.63;;
72603;SDS011;60645;56.968;24.196;2023-04-01T01:40:57;18.67;;;9.77;;
72603;SDS011;60645;56.968;24.196;2023-04-01T01:43:29;17.35;;;9.10;;
72603;SDS011;60645;56.968;24.196;2023-04-01T01:45:59;15.18;;;7.78;;
72603;SDS011;60645;56.968;24.196;2023-04-01T01:48:30;17.33;;;9.23;;
72603;SDS011;60645;56.968;24.196;2023-04-01T01:50:58;17.30;;;8.48;;
72603;SDS011;60645;56.968;24.196;2023-04-01T01:53:26;16.45;;;8.55;;
72603;SDS011;60645;56.968;24.196;2023-04-01T01:55:53;14.52;;;7.78;;
72603;SDS011;60645;56.968;24.196;2023-04-01T01:58:24;17.27;;;7.53;;
72603;SDS011;60645;56.968;24.196;2023-04-01T02:01:07;13.65;;;7.60;;
72603;SDS011;60645;56.968;24.196;2023-04-01T02:03:41;13.95;;;7.00;;
72603;SDS011;60645;56.968;24.196;2023-04-01T02:06:12;15.02;;;8.13;;
72603;SDS011;60645;56.968;24.196;2023-04-01T02:08:52;14.73;;;8.20;;
72603;SDS011;60645;56.968;24.196;2023-04-01T02:11:33;15.93;;;7.78;;
72603;SDS011;60645;56.968;24.196;2023-04-01T02:16:41;14.70;;;7.53;;
72603;SDS011;60645;56.968;24.196;2023-04-01T02:19:16;12.20;;;6.18;;
72603;SDS011;60645;56.968;24.196;2023-04-01T02:21:53;15.53;;;7.83;;
72603;SDS011;60645;56.968;24.196;2023-04-01T02:24:23;13.07;;;7.13;;
72603;SDS011;60645;56.968;24.196;2023-04-01T02:26:53;12.18;;;6.35;;
72603;SDS011;60645;56.968;24.196;2023-04-01T02:29:20;12.45;;;6.22;;
72603;SDS011;60645;56.968;24.196;2023-04-01T02:31:49;12.25;;;6.15;;
72603;SDS011;60645;56.968;24.196;2023-04-01T02:34:18;11.07;;;5.88;;
72603;SDS011;60645;56.968;24.196;2023-04-01T02:36:47;11.00;;;6.22;;
72603;SDS011;60645;56.968;24.196;2023-04-01T02:39:16;11.00;;;5.90;;
72603;SDS011;60645;56.968;24.196;2023-04-01T02:41:44;10.65;;;5.50;;
72603;SDS011;60645;56.968;24.196;2023-04-01T02:44:12;11.20;;;6.03;;
72603;SDS011;60645;56.968;24.196;2023-04-01T02:46:41;10.40;;;5.47;;
72603;SDS011;60645;56.968;24.196;2023-04-01T02:49:08;11.43;;;5.80;;
72603;SDS011;60645;56.968;24.196;2023-04-01T02:51:35;9.45;;;5.20;;
72603;SDS011;60645;56.968;24.196;2023-04-01T02:54:02;9.90;;;5.20;;
72603;SDS011;60645;56.968;24.196;2023-04-01T02:56:29;10.57;;;5.85;;
72603;SDS011;60645;56.968;24.196;2023-04-01T02:58:56;9.38;;;5.30;;
72603;SDS011;60645;56.968;24.196;2023-04-01T06:00:46;3.38;;;1.60;;
72603;SDS011;60645;56.968;24.196;2023-04-01T06:03:18;5.82;;;3.47;;
72603;SDS011;60645;56.968;24.196;2023-04-01T06:08:16;5.38;;;2.42;;
72603;SDS011;60645;56.968;24.196;2023-04-01T06:19:47;4.22;;;2.20;;
72603;SDS011;60645;56.968;24.196;2023-04-01T07:06:25;2.88;;;1.05;;
72603;SDS011;60645;56.968;24.196;2023-04-01T07:16:41;7.88;;;1.50;;
72603;SDS011;60645;56.968;24.196;2023-04-01T17:26:57;4.55;;;2.70;;
72603;SDS011;60645;56.968;24.196;2023-04-01T18:19:31;5.65;;;3.90;;
72603;SDS011;60645;56.968;24.196;2023-04-01T18:22:10;5.70;;;4.27;;
72603;SDS011;60645;56.968;24.196;2023-04-01T18:27:36;6.70;;;4.50;;
72603;SDS011;60645;56.968;24.196;2023-04-01T18:38:30;7.70;;;5.32;;
72603;SDS011;60645;56.968;24.196;2023-04-01T18:43:57;6.82;;;5.15;;
72603;SDS011;60645;56.968;24.196;2023-04-01T18:46:38;6.18;;;5.00;;
72603;SDS011;60645;56.968;24.196;2023-04-01T18:52:13;5.70;;;4.60;;
72603;SDS011;60645;56.968;24.196;2023-04-01T19:20:45;3.65;;;1.23;;
72603;SDS011;60645;56.968;24.196;2023-04-01T19:26:04;2.50;;;2.05;;
72603;SDS011;60645;56.968;24.196;2023-04-01T19:31:29;2.95;;;1.92;;
72603;SDS011;60645;56.968;24.196;2023-04-01T19:52:42;5.25;;;2.83;;
72603;SDS011;60645;56.968;24.196;2023-04-01T19:55:33;7.03;;;4.20;;
72603;SDS011;60645;56.968;24.196;2023-04-01T20:00:49;4.95;;;2.67;;
72603;SDS011;60645;56.968;24.196;2023-04-01T20:19:25;3.05;;;1.60;;
72603;SDS011;60645;56.968;24.196;2023-04-01T20:22:17;1.77;;;0.98;;
72603;SDS011;60645;56.968;24.196;2023-04-01T20:25:10;3.10;;;1.90;;
72603;SDS011;60645;56.968;24.196;2023-04-01T20:27:48;3.15;;;1.92;;
72603;SDS011;60645;56.968;24.196;2023-04-01T20:43:57;1.80;;;1.65;;
72603;SDS011;60645;56.968;24.196;2023-04-01T20:52:16;2.95;;;1.50;;
72603;SDS011;60645;56.968;24.196;2023-04-01T20:55:06;3.42;;;2.13;;
72603;SDS011;60645;56.968;24.196;2023-04-01T21:00:40;3.42;;;2.05;;
72603;SDS011;60645;56.968;24.196;2023-04-01T21:03:18;1.70;;;0.95;;
72603;SDS011;60645;56.968;24.196;2023-04-01T21:06:03;4.97;;;3.03;;
72603;SDS011;60645;56.968;24.196;2023-04-01T21:55:21;2.63;;;1.27;;
72603;SDS011;60645;56.968;24.196;2023-04-01T22:04:10;3.08;;;1.73;;
72603;SDS011;60645;56.968;24.196;2023-04-01T22:25:02;2.75;;;1.65;;
72603;SDS011;60645;56.968;24.196;2023-04-01T22:27:49;2.33;;;1.05;;
72603;SDS011;60645;56.968;24.196;2023-04-01T22:33:03;2.63;;;1.45;;
72603;SDS011;60645;56.968;24.196;2023-04-01T22:38:37;2.80;;;1.58;;
72603;SDS011;60645;56.968;24.196;2023-04-01T22:41:12;3.58;;;1.90;;
72603;SDS011;60645;56.968;24.196;2023-04-01T22:43:57;4.15;;;1.95;;
72603;SDS011;60645;56.968;24.196;2023-04-01T22:49:02;4.93;;;1.70;;
72603;SDS011;60645;56.968;24.196;2023-04-01T22:51:57;2.60;;;1.40;;
72603;SDS011;60645;56.968;24.196;2023-04-01T22:57:44;2.67;;;1.40;;
72603;SDS011;60645;56.968;24.196;2023-04-01T23:00:28;3.53;;;1.75;;
72603;SDS011;60645;56.968;24.196;2023-04-01T23:05:47;2.60;;;0.93;;
72603;SDS011;60645;56.968;24.196;2023-04-01T23:11:10;3.80;;;1.73;;
72603;SDS011;60645;56.968;24.196;2023-04-01T23:16:33;2.45;;;1.33;;
72603;SDS011;60645;56.968;24.196;2023-04-01T23:21:44;1.77;;;1.20;;
72603;SDS011;60645;56.968;24.196;2023-04-01T23:24:41;2.35;;;1.40;;
72603;SDS011;60645;56.968;24.196;2023-04-01T23:27:29;3.00;;;2.00;;
72603;SDS011;60645;56.968;24.196;2023-04-01T23:29:56;3.83;;;1.90;;
72603;SDS011;60645;56.968;24.196;2023-04-01T23:32:23;2.60;;;0.90;;
72603;SDS011;60645;56.968;24.196;2023-04-01T23:34:54;2.53;;;1.17;;
72603;SDS011;60645;56.968;24.196;2023-04-01T23:37:23;3.00;;;1.00;;
72603;SDS011;60645;56.968;24.196;2023-04-01T23:39:57;1.80;;;0.85;;
72603;SDS011;60645;56.968;24.196;2023-04-01T23:42:32;2.13;;;0.75;;
72603;SDS011;60645;56.968;24.196;2023-04-01T23:45:05;2.35;;;0.93;;
72603;SDS011;60645;56.968;24.196;2023-04-01T23:47:43;2.65;;;0.88;;
72603;SDS011;60645;56.968;24.196;2023-04-01T23:50:18;1.10;;;0.50;;
72603;SDS011;60645;56.968;24.196;2023-04-01T23:55:32;1.83;;;0.93;;
